Vendee 1 — FGH2726 — position and weather

sailwx.info

Track history (hours):
 
Tides and Currents Weather Stations Pressure Air Temp Water Temp Dewpoint Dewpoint Depression Visibility Wind Speed Wind Dir Waves Ship Positions

Vendee 1

Last reported at 2018-Jun-23 12:00 UTC. Time now 2018-Jun-23 12:24 UTC.
Position N 49°32' E 000°01'.

Length 10 m.

Type: Sailing vessel. MMSI: 227078960.

Date/timePositionNaut miles runAvg speedWind from/ knotsBaromVisibWave heightAir tempDewpointWater temp
2018-Jun-23 12:00N 49°32' E 000°01'1 1.7
2018-Jun-23 11:30N 49°31' E 000°01'0 0.8
2018-Jun-23 11:00N 49°31' E 000°02'1 3.0
2018-Jun-23 10:30N 49°30' E 000°03'2 3.4
2018-Jun-23 10:00N 49°29' E 000°06'0 0.0
2018-Jun-23 09:21N 49°29' E 000°06'0 0.0
2018-Jun-23 08:57N 49°29' E 000°06'0 0.0
2018-Jun-22 17:57N 49°29' E 000°06'0 0.0
2018-Jun-22 17:30N 49°29' E 000°06'0 0.0
2018-Jun-22 17:00N 49°29' E 000°06'0 0.0
2018-Jun-22 16:30N 49°29' E 000°06'0 0.0
2018-Jun-22 15:57N 49°29' E 000°06'0 0.0
2018-Jun-22 15:30N 49°29' E 000°06'3 5.6
2018-Jun-22 14:59N 49°31' E 000°02'1 1.6
2018-Jun-22 14:30N 49°31' E 000°02'1 1.9
2018-Jun-22 14:00N 49°32' E 000°01'4 0.1
2018-Jun-20 10:49N 49°29' E 000°06'0 0.0
2018-Jun-20 10:25N 49°29' E 000°06'0 0.0
2018-Jun-20 09:58N 49°29' E 000°06'0 0.0
2018-Jun-20 09:22N 49°29' E 000°06'0 0.0
2018-Jun-20 08:58N 49°29' E 000°06'0 0.0
2018-Jun-20 08:28N 49°29' E 000°06'0 0.0
2018-Jun-20 07:58N 49°29' E 000°06'0 0.0
2018-Jun-20 07:28N 49°29' E 000°06'0 0.1
2018-Jun-20 07:00N 49°29' E 000°06'2 3.3
2018-Jun-20 06:30N 49°30' E 000°03'1 2.3
2018-Jun-20 06:00N 49°31' E 000°03'1 2.8
2018-Jun-20 05:29N 49°33' E 000°03'1 1.3
2018-Jun-20 04:58N 49°33' E 000°02'1 2.7
2018-Jun-20 04:30N 49°34' E 000°02'1 2.3
2018-Jun-20 03:54N 49°36' E 000°01'1 2.8
2018-Jun-20 03:30N 49°36' W 000°00'1 2.3
2018-Jun-20 03:00N 49°36' W 000°02'1 1.7
2018-Jun-20 02:29N 49°36' W 000°04'1 1.9
2018-Jun-20 02:00N 49°36' W 000°05'1 2.2
2018-Jun-20 01:30N 49°36' W 000°07'1 2.5
2018-Jun-20 01:01N 49°36' W 000°08'2 3.9
2018-Jun-20 00:30N 49°36' W 000°11'2 4.8
2018-Jun-20 00:00N 49°38' W 000°14'2 4.4
2018-Jun-19 23:30N 49°39' W 000°17'2 3.8
2018-Jun-19 22:58N 49°41' W 000°19'2 3.8
2018-Jun-19 22:29N 49°42' W 000°19'2 3.4
2018-Jun-19 21:59N 49°44' W 000°19'0 1.0
2018-Jun-19 21:29N 49°44' W 000°18'1 3.0
2018-Jun-19 21:00N 49°46' W 000°18'1 3.0
2018-Jun-19 20:30N 49°47' W 000°18'2 4.2
2018-Jun-19 19:58N 49°49' W 000°18'2 4.9
2018-Jun-19 19:29N 49°52' W 000°18'3 5.7
2018-Jun-19 18:59N 49°55' W 000°18'73 8.0
2018-Jun-19 09:54N 50°37' W 001°51'3 7.9
2018-Jun-19 09:30N 50°36' W 001°56'35 5.9
2018-Jun-19 03:37N 50°26' W 002°48'1 7.7
2018-Jun-19 03:30N 50°26' W 002°49'6 7.6
2018-Jun-19 02:41N 50°23' W 002°58'1 8.2
2018-Jun-19 02:30N 50°22' W 002°59'5 7.9
2018-Jun-19 01:54N 50°18' W 003°04'3 8.7
2018-Jun-19 01:30N 50°16' W 003°08'4 9.0
2018-Jun-19 01:00N 50°13' W 003°13'5 9.3
2018-Jun-19 00:28N 50°12' W 003°21'4 9.5
2018-Jun-19 00:00N 50°11' W 003°27'5 9.2
2018-Jun-18 23:30N 50°11' W 003°35'44 3.8
2018-Jun-18 12:04N 49°36' W 002°53'5 7.0
2018-Jun-18 11:24N 49°33' W 002°48'13 5.1
2018-Jun-18 08:51N 49°25' W 002°32'3 4.3
2018-Jun-18 08:15N 49°26' W 002°28'3 4.7
2018-Jun-18 07:38N 49°28' W 002°25'2 4.6
2018-Jun-18 07:16N 49°28' W 002°23'1 4.7
2018-Jun-18 06:58N 49°28' W 002°21'3 5.0
2018-Jun-18 06:19N 49°30' W 002°16'2 4.8
2018-Jun-18 05:52N 49°31' W 002°13'5 8.3
2018-Jun-18 05:18N 49°36' W 002°12'3 9.8
2018-Jun-18 05:00N 49°38' W 002°11'5 9.5
2018-Jun-18 04:28N 49°42' W 002°04'57 6.6
2018-Jun-17 19:52N 49°35' W 000°37'3 7.2
2018-Jun-17 19:30N 49°35' W 000°33'4 7.7
2018-Jun-17 19:00N 49°34' W 000°28'4 8.2
2018-Jun-17 18:30N 49°34' W 000°21'4 8.4
2018-Jun-17 18:00N 49°33' W 000°15'3 5.5
2018-Jun-17 17:30N 49°33' W 000°11'1 2.6
2018-Jun-17 17:00N 49°33' W 000°09'1 1.4
2018-Jun-17 16:30N 49°32' W 000°08'1 2.9
2018-Jun-17 16:00N 49°32' W 000°06'2 3.1
2018-Jun-17 15:30N 49°31' W 000°04'2 3.1
2018-Jun-17 15:00N 49°31' W 000°01'2 3.3
2018-Jun-17 14:31N 49°31' E 000°01'2 3.3
2018-Jun-17 14:00N 49°30' E 000°04'0 0.2
2018-Jun-17 13:30N 49°30' E 000°04'0 1.0
2018-Jun-17 13:00N 49°30' E 000°03'1 2.8
2018-Jun-17 12:29N 49°29' E 000°05'0 0.8
2018-Jun-17 11:58N 49°29' E 000°06'0 0.0
2018-Jun-17 11:28N 49°29' E 000°06'0 0.0
2018-Jun-17 10:58N 49°29' E 000°06'0 0.0
2018-Jun-17 10:28N 49°29' E 000°06'0 0.0
2018-Jun-17 09:58N 49°29' E 000°06'0 0.0
2018-Jun-17 09:28N 49°29' E 000°06'  
Track history (hours):
 
Tides and Currents Weather Stations Pressure Air Temp Water Temp Dewpoint Dewpoint Depression Visibility Wind Speed Wind Dir Waves Ship Positions

Vendee 1

Last reported at 2018-Jun-23 12:00 UTC. Time now 2018-Jun-23 12:24 UTC.
Position N 49°32' E 000°01'.

Length 10 m.

Type: Sailing vessel. MMSI: 227078960.

Date/timePositionNaut miles runAvg speedWind from/ knotsBaromVisibWave heightAir tempDewpointWater temp
2018-Jun-23 12:00N 49°32' E 000°01'1 1.7
2018-Jun-23 11:30N 49°31' E 000°01'0 0.8
2018-Jun-23 11:00N 49°31' E 000°02'1 3.0
2018-Jun-23 10:30N 49°30' E 000°03'2 3.4
2018-Jun-23 10:00N 49°29' E 000°06'0 0.0
2018-Jun-23 09:21N 49°29' E 000°06'0 0.0
2018-Jun-23 08:57N 49°29' E 000°06'0 0.0
2018-Jun-22 17:57N 49°29' E 000°06'0 0.0
2018-Jun-22 17:30N 49°29' E 000°06'0 0.0
2018-Jun-22 17:00N 49°29' E 000°06'0 0.0
2018-Jun-22 16:30N 49°29' E 000°06'0 0.0
2018-Jun-22 15:57N 49°29' E 000°06'0 0.0
2018-Jun-22 15:30N 49°29' E 000°06'3 5.6
2018-Jun-22 14:59N 49°31' E 000°02'1 1.6
2018-Jun-22 14:30N 49°31' E 000°02'1 1.9
2018-Jun-22 14:00N 49°32' E 000°01'4 0.1
2018-Jun-20 10:49N 49°29' E 000°06'0 0.0
2018-Jun-20 10:25N 49°29' E 000°06'0 0.0
2018-Jun-20 09:58N 49°29' E 000°06'0 0.0
2018-Jun-20 09:22N 49°29' E 000°06'0 0.0
2018-Jun-20 08:58N 49°29' E 000°06'0 0.0
2018-Jun-20 08:28N 49°29' E 000°06'0 0.0
2018-Jun-20 07:58N 49°29' E 000°06'0 0.0
2018-Jun-20 07:28N 49°29' E 000°06'0 0.1
2018-Jun-20 07:00N 49°29' E 000°06'2 3.3
2018-Jun-20 06:30N 49°30' E 000°03'1 2.3
2018-Jun-20 06:00N 49°31' E 000°03'1 2.8
2018-Jun-20 05:29N 49°33' E 000°03'1 1.3
2018-Jun-20 04:58N 49°33' E 000°02'1 2.7
2018-Jun-20 04:30N 49°34' E 000°02'1 2.3
2018-Jun-20 03:54N 49°36' E 000°01'1 2.8
2018-Jun-20 03:30N 49°36' W 000°00'1 2.3
2018-Jun-20 03:00N 49°36' W 000°02'1 1.7
2018-Jun-20 02:29N 49°36' W 000°04'1 1.9
2018-Jun-20 02:00N 49°36' W 000°05'1 2.2
2018-Jun-20 01:30N 49°36' W 000°07'1 2.5
2018-Jun-20 01:01N 49°36' W 000°08'2 3.9
2018-Jun-20 00:30N 49°36' W 000°11'2 4.8
2018-Jun-20 00:00N 49°38' W 000°14'2 4.4
2018-Jun-19 23:30N 49°39' W 000°17'2 3.8
2018-Jun-19 22:58N 49°41' W 000°19'2 3.8
2018-Jun-19 22:29N 49°42' W 000°19'2 3.4
2018-Jun-19 21:59N 49°44' W 000°19'0 1.0
2018-Jun-19 21:29N 49°44' W 000°18'1 3.0
2018-Jun-19 21:00N 49°46' W 000°18'1 3.0
2018-Jun-19 20:30N 49°47' W 000°18'2 4.2
2018-Jun-19 19:58N 49°49' W 000°18'2 4.9
2018-Jun-19 19:29N 49°52' W 000°18'3 5.7
2018-Jun-19 18:59N 49°55' W 000°18'73 8.0
2018-Jun-19 09:54N 50°37' W 001°51'3 7.9
2018-Jun-19 09:30N 50°36' W 001°56'35 5.9
2018-Jun-19 03:37N 50°26' W 002°48'1 7.7
2018-Jun-19 03:30N 50°26' W 002°49'6 7.6
2018-Jun-19 02:41N 50°23' W 002°58'1 8.2
2018-Jun-19 02:30N 50°22' W 002°59'5 7.9
2018-Jun-19 01:54N 50°18' W 003°04'3 8.7
2018-Jun-19 01:30N 50°16' W 003°08'4 9.0
2018-Jun-19 01:00N 50°13' W 003°13'5 9.3
2018-Jun-19 00:28N 50°12' W 003°21'4 9.5
2018-Jun-19 00:00N 50°11' W 003°27'5 9.2
2018-Jun-18 23:30N 50°11' W 003°35'44 3.8
2018-Jun-18 12:04N 49°36' W 002°53'5 7.0
2018-Jun-18 11:24N 49°33' W 002°48'13 5.1
2018-Jun-18 08:51N 49°25' W 002°32'3 4.3
2018-Jun-18 08:15N 49°26' W 002°28'3 4.7
2018-Jun-18 07:38N 49°28' W 002°25'2 4.6
2018-Jun-18 07:16N 49°28' W 002°23'1 4.7
2018-Jun-18 06:58N 49°28' W 002°21'3 5.0
2018-Jun-18 06:19N 49°30' W 002°16'2 4.8
2018-Jun-18 05:52N 49°31' W 002°13'5 8.3
2018-Jun-18 05:18N 49°36' W 002°12'3 9.8
2018-Jun-18 05:00N 49°38' W 002°11'5 9.5
2018-Jun-18 04:28N 49°42' W 002°04'57 6.6
2018-Jun-17 19:52N 49°35' W 000°37'3 7.2
2018-Jun-17 19:30N 49°35' W 000°33'4 7.7
2018-Jun-17 19:00N 49°34' W 000°28'4 8.2
2018-Jun-17 18:30N 49°34' W 000°21'4 8.4
2018-Jun-17 18:00N 49°33' W 000°15'3 5.5
2018-Jun-17 17:30N 49°33' W 000°11'1 2.6
2018-Jun-17 17:00N 49°33' W 000°09'1 1.4
2018-Jun-17 16:30N 49°32' W 000°08'1 2.9
2018-Jun-17 16:00N 49°32' W 000°06'2 3.1
2018-Jun-17 15:30N 49°31' W 000°04'2 3.1
2018-Jun-17 15:00N 49°31' W 000°01'2 3.3
2018-Jun-17 14:31N 49°31' E 000°01'2 3.3
2018-Jun-17 14:00N 49°30' E 000°04'0 0.2
2018-Jun-17 13:30N 49°30' E 000°04'0 1.0
2018-Jun-17 13:00N 49°30' E 000°03'1 2.8
2018-Jun-17 12:29N 49°29' E 000°05'0 0.8
2018-Jun-17 11:58N 49°29' E 000°06'0 0.0
2018-Jun-17 11:28N 49°29' E 000°06'0 0.0
2018-Jun-17 10:58N 49°29' E 000°06'0 0.0
2018-Jun-17 10:28N 49°29' E 000°06'0 0.0
2018-Jun-17 09:58N 49°29' E 000°06'0 0.0
2018-Jun-17 09:28N 49°29' E 000°06'  

Dump ship's entire track history